sensor_id;sensor_type;location;lat;lon;timestamp;P1;durP1;ratioP1;P2;durP2;ratioP2
48317;SDS011;34127;47.412;9.730;2022-08-07T00:00:17;12.52;;;8.93;;
48317;SDS011;34127;47.412;9.730;2022-08-07T00:02:43;10.23;;;8.95;;
48317;SDS011;34127;47.412;9.730;2022-08-07T00:05:09;11.25;;;8.43;;
48317;SDS011;34127;47.412;9.730;2022-08-07T00:07:35;12.57;;;9.30;;
48317;SDS011;34127;47.412;9.730;2022-08-07T00:10:02;10.45;;;8.95;;
48317;SDS011;34127;47.412;9.730;2022-08-07T00:12:28;12.43;;;9.25;;
48317;SDS011;34127;47.412;9.730;2022-08-07T00:14:55;9.63;;;8.63;;
48317;SDS011;34127;47.412;9.730;2022-08-07T00:17:22;10.15;;;8.32;;
48317;SDS011;34127;47.412;9.730;2022-08-07T00:19:48;11.10;;;9.05;;
48317;SDS011;34127;47.412;9.730;2022-08-07T00:22:14;9.70;;;8.70;;
48317;SDS011;34127;47.412;9.730;2022-08-07T00:24:40;10.30;;;8.82;;
48317;SDS011;34127;47.412;9.730;2022-08-07T00:27:06;10.13;;;8.70;;
48317;SDS011;34127;47.412;9.730;2022-08-07T00:29:33;13.60;;;9.30;;
48317;SDS011;34127;47.412;9.730;2022-08-07T00:31:59;12.02;;;9.85;;
48317;SDS011;34127;47.412;9.730;2022-08-07T00:34:26;13.18;;;8.80;;
48317;SDS011;34127;47.412;9.730;2022-08-07T00:36:52;10.20;;;8.38;;
48317;SDS011;34127;47.412;9.730;2022-08-07T00:39:18;11.40;;;8.98;;
48317;SDS011;34127;47.412;9.730;2022-08-07T00:41:48;10.35;;;8.20;;
48317;SDS011;34127;47.412;9.730;2022-08-07T00:44:15;13.77;;;9.20;;
48317;SDS011;34127;47.412;9.730;2022-08-07T00:46:41;11.02;;;8.68;;
48317;SDS011;34127;47.412;9.730;2022-08-07T00:49:07;9.70;;;8.38;;
48317;SDS011;34127;47.412;9.730;2022-08-07T00:51:34;10.55;;;8.63;;
48317;SDS011;34127;47.412;9.730;2022-08-07T00:54:00;10.93;;;8.20;;
48317;SDS011;34127;47.412;9.730;2022-08-07T00:56:26;10.95;;;9.18;;
48317;SDS011;34127;47.412;9.730;2022-08-07T00:58:54;10.68;;;8.98;;
48317;SDS011;34127;47.412;9.730;2022-08-07T01:01:20;11.60;;;9.07;;
48317;SDS011;34127;47.412;9.730;2022-08-07T01:03:50;9.85;;;7.80;;
48317;SDS011;34127;47.412;9.730;2022-08-07T01:06:17;9.82;;;8.13;;
48317;SDS011;34127;47.412;9.730;2022-08-07T01:08:44;9.50;;;8.20;;
48317;SDS011;34127;47.412;9.730;2022-08-07T01:11:11;10.15;;;7.93;;
48317;SDS011;34127;47.412;9.730;2022-08-07T01:13:37;9.75;;;8.45;;
48317;SDS011;34127;47.412;9.730;2022-08-07T01:16:04;9.05;;;8.02;;
48317;SDS011;34127;47.412;9.730;2022-08-07T01:18:30;10.38;;;8.48;;
48317;SDS011;34127;47.412;9.730;2022-08-07T01:23:36;10.70;;;8.13;;
48317;SDS011;34127;47.412;9.730;2022-08-07T01:26:02;12.75;;;8.48;;
48317;SDS011;34127;47.412;9.730;2022-08-07T01:28:29;9.30;;;7.90;;
48317;SDS011;34127;47.412;9.730;2022-08-07T01:30:55;11.40;;;8.52;;
48317;SDS011;34127;47.412;9.730;2022-08-07T01:33:22;9.00;;;8.00;;
48317;SDS011;34127;47.412;9.730;2022-08-07T01:35:48;10.80;;;8.55;;
48317;SDS011;34127;47.412;9.730;2022-08-07T01:38:15;10.50;;;8.70;;
48317;SDS011;34127;47.412;9.730;2022-08-07T01:40:42;8.82;;;7.82;;
48317;SDS011;34127;47.412;9.730;2022-08-07T01:43:08;10.95;;;8.43;;
48317;SDS011;34127;47.412;9.730;2022-08-07T01:45:34;10.07;;;8.98;;
48317;SDS011;34127;47.412;9.730;2022-08-07T01:48:00;11.27;;;9.77;;
48317;SDS011;34127;47.412;9.730;2022-08-07T01:50:27;11.88;;;10.02;;
48317;SDS011;34127;47.412;9.730;2022-08-07T01:52:55;11.00;;;9.48;;
48317;SDS011;34127;47.412;9.730;2022-08-07T01:55:28;11.95;;;10.15;;
48317;SDS011;34127;47.412;9.730;2022-08-07T01:57:58;11.65;;;9.80;;
48317;SDS011;34127;47.412;9.730;2022-08-07T02:00:28;11.00;;;9.68;;
48317;SDS011;34127;47.412;9.730;2022-08-07T02:02:57;11.73;;;9.48;;
48317;SDS011;34127;47.412;9.730;2022-08-07T02:05:27;12.10;;;9.65;;
48317;SDS011;34127;47.412;9.730;2022-08-07T02:07:56;10.65;;;9.52;;
48317;SDS011;34127;47.412;9.730;2022-08-07T02:10:23;12.88;;;9.70;;
48317;SDS011;34127;47.412;9.730;2022-08-07T02:12:50;10.35;;;9.25;;
48317;SDS011;34127;47.412;9.730;2022-08-07T02:15:21;11.85;;;9.88;;
48317;SDS011;34127;47.412;9.730;2022-08-07T02:17:48;10.82;;;8.88;;
48317;SDS011;34127;47.412;9.730;2022-08-07T02:20:16;12.10;;;9.95;;
48317;SDS011;34127;47.412;9.730;2022-08-07T02:22:43;11.88;;;9.48;;
48317;SDS011;34127;47.412;9.730;2022-08-07T02:25:09;12.48;;;9.38;;
48317;SDS011;34127;47.412;9.730;2022-08-07T02:27:36;10.68;;;8.88;;
48317;SDS011;34127;47.412;9.730;2022-08-07T02:30:03;11.30;;;9.05;;
48317;SDS011;34127;47.412;9.730;2022-08-07T02:32:29;10.88;;;8.90;;
48317;SDS011;34127;47.412;9.730;2022-08-07T02:34:56;10.98;;;8.68;;
48317;SDS011;34127;47.412;9.730;2022-08-07T02:37:23;10.15;;;8.60;;
48317;SDS011;34127;47.412;9.730;2022-08-07T02:39:50;10.63;;;7.85;;
48317;SDS011;34127;47.412;9.730;2022-08-07T02:42:17;11.57;;;8.70;;
48317;SDS011;34127;47.412;9.730;2022-08-07T02:44:44;10.63;;;8.50;;
48317;SDS011;34127;47.412;9.730;2022-08-07T02:47:11;10.68;;;8.80;;
48317;SDS011;34127;47.412;9.730;2022-08-07T02:49:37;11.02;;;8.50;;
48317;SDS011;34127;47.412;9.730;2022-08-07T02:52:04;11.20;;;8.73;;
48317;SDS011;34127;47.412;9.730;2022-08-07T02:54:33;9.65;;;7.85;;
48317;SDS011;34127;47.412;9.730;2022-08-07T02:57:01;8.73;;;7.18;;
48317;SDS011;34127;47.412;9.730;2022-08-07T02:59:28;9.13;;;7.78;;
48317;SDS011;34127;47.412;9.730;2022-08-07T03:01:54;9.20;;;7.65;;
48317;SDS011;34127;47.412;9.730;2022-08-07T03:04:21;10.85;;;8.15;;
48317;SDS011;34127;47.412;9.730;2022-08-07T03:06:48;8.80;;;7.00;;
48317;SDS011;34127;47.412;9.730;2022-08-07T03:09:15;11.20;;;7.47;;
48317;SDS011;34127;47.412;9.730;2022-08-07T03:11:43;12.25;;;7.78;;
48317;SDS011;34127;47.412;9.730;2022-08-07T03:14:10;11.75;;;7.78;;
48317;SDS011;34127;47.412;9.730;2022-08-07T03:16:36;9.70;;;8.13;;
48317;SDS011;34127;47.412;9.730;2022-08-07T03:19:02;8.32;;;7.22;;
48317;SDS011;34127;47.412;9.730;2022-08-07T03:21:28;7.88;;;7.00;;
48317;SDS011;34127;47.412;9.730;2022-08-07T03:23:55;9.35;;;7.57;;
48317;SDS011;34127;47.412;9.730;2022-08-07T03:26:30;8.05;;;7.22;;
48317;SDS011;34127;47.412;9.730;2022-08-07T03:28:57;9.07;;;7.10;;
48317;SDS011;34127;47.412;9.730;2022-08-07T03:31:25;8.85;;;7.13;;
48317;SDS011;34127;47.412;9.730;2022-08-07T03:33:56;9.63;;;7.30;;
48317;SDS011;34127;47.412;9.730;2022-08-07T03:36:23;10.38;;;7.45;;
48317;SDS011;34127;47.412;9.730;2022-08-07T03:38:51;9.02;;;7.30;;
48317;SDS011;34127;47.412;9.730;2022-08-07T03:41:18;8.50;;;6.50;;
48317;SDS011;34127;47.412;9.730;2022-08-07T03:43:44;8.88;;;6.65;;
48317;SDS011;34127;47.412;9.730;2022-08-07T03:46:11;9.57;;;6.80;;
48317;SDS011;34127;47.412;9.730;2022-08-07T03:48:37;7.93;;;6.25;;
48317;SDS011;34127;47.412;9.730;2022-08-07T03:51:04;9.25;;;7.78;;
48317;SDS011;34127;47.412;9.730;2022-08-07T03:53:31;7.35;;;6.15;;
48317;SDS011;34127;47.412;9.730;2022-08-07T03:55:57;9.23;;;7.70;;
48317;SDS011;34127;47.412;9.730;2022-08-07T03:58:24;9.35;;;7.50;;
48317;SDS011;34127;47.412;9.730;2022-08-07T04:00:51;9.48;;;7.45;;
48317;SDS011;34127;47.412;9.730;2022-08-07T04:03:18;8.50;;;6.72;;
48317;SDS011;34127;47.412;9.730;2022-08-07T04:05:44;7.93;;;6.65;;
48317;SDS011;34127;47.412;9.730;2022-08-07T04:08:11;8.98;;;6.40;;
48317;SDS011;34127;47.412;9.730;2022-08-07T04:10:41;8.40;;;6.35;;
48317;SDS011;34127;47.412;9.730;2022-08-07T04:13:10;8.82;;;6.07;;
48317;SDS011;34127;47.412;9.730;2022-08-07T04:15:37;8.18;;;6.07;;
48317;SDS011;34127;47.412;9.730;2022-08-07T04:18:03;7.55;;;5.68;;
48317;SDS011;34127;47.412;9.730;2022-08-07T04:20:30;7.07;;;5.68;;
48317;SDS011;34127;47.412;9.730;2022-08-07T04:22:56;6.43;;;5.55;;
48317;SDS011;34127;47.412;9.730;2022-08-07T04:25:23;9.57;;;5.90;;
48317;SDS011;34127;47.412;9.730;2022-08-07T04:27:50;7.07;;;6.20;;
48317;SDS011;34127;47.412;9.730;2022-08-07T04:30:17;7.38;;;5.93;;
48317;SDS011;34127;47.412;9.730;2022-08-07T04:32:43;8.73;;;6.10;;
48317;SDS011;34127;47.412;9.730;2022-08-07T04:35:10;7.78;;;6.10;;
48317;SDS011;34127;47.412;9.730;2022-08-07T04:37:37;8.63;;;6.00;;
48317;SDS011;34127;47.412;9.730;2022-08-07T04:40:04;6.25;;;5.35;;
48317;SDS011;34127;47.412;9.730;2022-08-07T04:42:30;7.28;;;5.90;;
48317;SDS011;34127;47.412;9.730;2022-08-07T04:44:59;7.55;;;6.03;;
48317;SDS011;34127;47.412;9.730;2022-08-07T04:50:09;6.55;;;5.30;;
48317;SDS011;34127;47.412;9.730;2022-08-07T04:52:38;7.18;;;5.63;;
48317;SDS011;34127;47.412;9.730;2022-08-07T04:55:12;7.30;;;5.80;;
48317;SDS011;34127;47.412;9.730;2022-08-07T04:57:54;8.82;;;5.70;;
48317;SDS011;34127;47.412;9.730;2022-08-07T05:00:57;8.02;;;5.68;;
48317;SDS011;34127;47.412;9.730;2022-08-07T05:05:50;6.70;;;5.30;;
48317;SDS011;34127;47.412;9.730;2022-08-07T05:08:19;7.65;;;5.80;;
48317;SDS011;34127;47.412;9.730;2022-08-07T05:10:56;7.15;;;5.55;;
48317;SDS011;34127;47.412;9.730;2022-08-07T05:13:26;6.45;;;5.47;;
48317;SDS011;34127;47.412;9.730;2022-08-07T05:15:53;7.50;;;5.13;;
48317;SDS011;34127;47.412;9.730;2022-08-07T05:20:47;6.85;;;5.43;;
48317;SDS011;34127;47.412;9.730;2022-08-07T05:23:16;6.70;;;5.65;;
48317;SDS011;34127;47.412;9.730;2022-08-07T05:25:42;8.20;;;5.60;;
48317;SDS011;34127;47.412;9.730;2022-08-07T05:28:09;6.00;;;5.13;;
48317;SDS011;34127;47.412;9.730;2022-08-07T05:30:36;7.25;;;6.03;;
48317;SDS011;34127;47.412;9.730;2022-08-07T05:33:03;6.93;;;5.57;;
48317;SDS011;34127;47.412;9.730;2022-08-07T05:35:33;6.60;;;5.65;;
48317;SDS011;34127;47.412;9.730;2022-08-07T05:37:59;6.28;;;5.15;;
48317;SDS011;34127;47.412;9.730;2022-08-07T05:40:27;6.80;;;5.53;;
48317;SDS011;34127;47.412;9.730;2022-08-07T05:42:53;8.60;;;6.22;;
48317;SDS011;34127;47.412;9.730;2022-08-07T05:45:19;6.40;;;5.53;;
48317;SDS011;34127;47.412;9.730;2022-08-07T05:47:46;7.32;;;5.72;;
48317;SDS011;34127;47.412;9.730;2022-08-07T05:50:12;9.30;;;6.07;;
48317;SDS011;34127;47.412;9.730;2022-08-07T05:52:39;7.40;;;6.32;;
48317;SDS011;34127;47.412;9.730;2022-08-07T05:55:05;8.27;;;6.13;;
48317;SDS011;34127;47.412;9.730;2022-08-07T05:57:32;6.97;;;5.88;;
48317;SDS011;34127;47.412;9.730;2022-08-07T06:00:00;8.50;;;5.30;;
48317;SDS011;34127;47.412;9.730;2022-08-07T06:02:27;7.45;;;5.85;;
48317;SDS011;34127;47.412;9.730;2022-08-07T06:04:56;7.35;;;5.00;;
48317;SDS011;34127;47.412;9.730;2022-08-07T06:07:22;6.38;;;5.15;;
48317;SDS011;34127;47.412;9.730;2022-08-07T06:09:49;6.60;;;4.95;;
48317;SDS011;34127;47.412;9.730;2022-08-07T06:12:15;6.60;;;5.22;;
48317;SDS011;34127;47.412;9.730;2022-08-07T06:14:42;6.07;;;5.10;;
48317;SDS011;34127;47.412;9.730;2022-08-07T06:17:08;7.03;;;4.80;;
48317;SDS011;34127;47.412;9.730;2022-08-07T06:19:37;5.43;;;4.78;;
48317;SDS011;34127;47.412;9.730;2022-08-07T06:22:03;6.43;;;5.00;;
48317;SDS011;34127;47.412;9.730;2022-08-07T06:24:29;6.13;;;5.25;;
48317;SDS011;34127;47.412;9.730;2022-08-07T06:26:55;6.90;;;5.53;;
48317;SDS011;34127;47.412;9.730;2022-08-07T06:29:25;7.50;;;5.65;;
48317;SDS011;34127;47.412;9.730;2022-08-07T06:31:51;6.18;;;5.30;;
48317;SDS011;34127;47.412;9.730;2022-08-07T06:34:18;8.25;;;5.88;;
48317;SDS011;34127;47.412;9.730;2022-08-07T06:36:44;7.45;;;5.75;;
48317;SDS011;34127;47.412;9.730;2022-08-07T06:39:10;7.25;;;5.68;;
48317;SDS011;34127;47.412;9.730;2022-08-07T06:41:44;8.68;;;6.35;;
48317;SDS011;34127;47.412;9.730;2022-08-07T06:44:12;6.68;;;5.47;;
48317;SDS011;34127;47.412;9.730;2022-08-07T06:46:39;6.32;;;5.57;;
48317;SDS011;34127;47.412;9.730;2022-08-07T06:49:06;11.02;;;5.55;;
48317;SDS011;34127;47.412;9.730;2022-08-07T06:51:33;6.55;;;5.63;;
48317;SDS011;34127;47.412;9.730;2022-08-07T06:54:00;7.35;;;6.10;;
48317;SDS011;34127;47.412;9.730;2022-08-07T06:56:27;9.23;;;6.35;;
48317;SDS011;34127;47.412;9.730;2022-08-07T06:59:05;7.07;;;6.03;;
48317;SDS011;34127;47.412;9.730;2022-08-07T07:01:32;7.22;;;6.43;;
48317;SDS011;34127;47.412;9.730;2022-08-07T07:03:58;7.60;;;6.00;;
48317;SDS011;34127;47.412;9.730;2022-08-07T07:06:25;7.78;;;6.43;;
48317;SDS011;34127;47.412;9.730;2022-08-07T07:08:51;9.48;;;6.32;;
48317;SDS011;34127;47.412;9.730;2022-08-07T07:11:17;8.25;;;6.80;;
48317;SDS011;34127;47.412;9.730;2022-08-07T07:13:46;9.50;;;7.15;;
48317;SDS011;34127;47.412;9.730;2022-08-07T07:16:16;7.85;;;6.63;;
48317;SDS011;34127;47.412;9.730;2022-08-07T07:19:05;10.65;;;7.68;;
48317;SDS011;34127;47.412;9.730;2022-08-07T07:21:31;9.55;;;6.65;;
48317;SDS011;34127;47.412;9.730;2022-08-07T07:23:59;7.78;;;6.90;;
48317;SDS011;34127;47.412;9.730;2022-08-07T07:26:25;8.65;;;6.55;;
48317;SDS011;34127;47.412;9.730;2022-08-07T07:28:54;7.80;;;6.57;;
48317;SDS011;34127;47.412;9.730;2022-08-07T07:31:30;7.97;;;6.70;;
48317;SDS011;34127;47.412;9.730;2022-08-07T07:33:58;8.40;;;7.13;;
48317;SDS011;34127;47.412;9.730;2022-08-07T07:36:25;8.73;;;7.38;;
48317;SDS011;34127;47.412;9.730;2022-08-07T07:38:53;8.80;;;7.57;;
48317;SDS011;34127;47.412;9.730;2022-08-07T07:41:20;9.02;;;8.02;;
48317;SDS011;34127;47.412;9.730;2022-08-07T07:43:47;9.95;;;7.97;;
48317;SDS011;34127;47.412;9.730;2022-08-07T07:46:15;8.85;;;7.63;;
48317;SDS011;34127;47.412;9.730;2022-08-07T07:48:42;9.10;;;7.60;;
48317;SDS011;34127;47.412;9.730;2022-08-07T07:51:10;10.27;;;7.82;;
48317;SDS011;34127;47.412;9.730;2022-08-07T07:53:38;10.60;;;8.77;;
48317;SDS011;34127;47.412;9.730;2022-08-07T07:56:05;10.68;;;8.82;;
48317;SDS011;34127;47.412;9.730;2022-08-07T07:58:33;11.27;;;7.90;;
48317;SDS011;34127;47.412;9.730;2022-08-07T08:01:00;10.00;;;7.90;;
48317;SDS011;34127;47.412;9.730;2022-08-07T08:03:27;8.73;;;7.82;;
48317;SDS011;34127;47.412;9.730;2022-08-07T08:05:54;11.23;;;7.78;;
48317;SDS011;34127;47.412;9.730;2022-08-07T08:08:25;10.02;;;7.30;;
48317;SDS011;34127;47.412;9.730;2022-08-07T08:10:52;8.50;;;7.30;;
48317;SDS011;34127;47.412;9.730;2022-08-07T08:13:19;7.00;;;5.68;;
48317;SDS011;34127;47.412;9.730;2022-08-07T08:15:47;7.70;;;6.85;;
48317;SDS011;34127;47.412;9.730;2022-08-07T08:18:14;10.52;;;6.85;;
48317;SDS011;34127;47.412;9.730;2022-08-07T08:20:40;8.45;;;7.20;;
48317;SDS011;34127;47.412;9.730;2022-08-07T08:23:07;7.35;;;6.32;;
48317;SDS011;34127;47.412;9.730;2022-08-07T08:25:53;9.25;;;7.00;;
48317;SDS011;34127;47.412;9.730;2022-08-07T08:28:39;10.45;;;7.30;;
48317;SDS011;34127;47.412;9.730;2022-08-07T08:31:08;8.77;;;6.88;;
48317;SDS011;34127;47.412;9.730;2022-08-07T08:33:35;8.38;;;6.60;;
48317;SDS011;34127;47.412;9.730;2022-08-07T08:36:02;8.65;;;7.03;;
48317;SDS011;34127;47.412;9.730;2022-08-07T08:38:34;9.38;;;6.53;;
48317;SDS011;34127;47.412;9.730;2022-08-07T08:43:36;8.88;;;6.53;;
48317;SDS011;34127;47.412;9.730;2022-08-07T08:46:06;9.27;;;6.20;;
48317;SDS011;34127;47.412;9.730;2022-08-07T08:51:15;9.00;;;6.80;;
48317;SDS011;34127;47.412;9.730;2022-08-07T08:53:46;9.15;;;6.45;;
48317;SDS011;34127;47.412;9.730;2022-08-07T08:56:23;8.55;;;7.07;;
48317;SDS011;34127;47.412;9.730;2022-08-07T08:58:52;8.68;;;7.00;;
48317;SDS011;34127;47.412;9.730;2022-08-07T09:01:23;7.85;;;6.10;;
48317;SDS011;34127;47.412;9.730;2022-08-07T09:03:53;8.50;;;6.22;;
48317;SDS011;34127;47.412;9.730;2022-08-07T09:08:59;7.82;;;6.25;;
48317;SDS011;34127;47.412;9.730;2022-08-07T09:11:38;7.38;;;5.75;;
48317;SDS011;34127;47.412;9.730;2022-08-07T09:14:13;7.30;;;5.78;;
48317;SDS011;34127;47.412;9.730;2022-08-07T09:16:47;7.50;;;6.55;;
48317;SDS011;34127;47.412;9.730;2022-08-07T09:26:45;7.75;;;5.47;;
48317;SDS011;34127;47.412;9.730;2022-08-07T09:31:44;8.77;;;5.80;;
48317;SDS011;34127;47.412;9.730;2022-08-07T09:38:08;8.60;;;6.32;;
48317;SDS011;34127;47.412;9.730;2022-08-07T09:42:47;5.97;;;5.05;;
48317;SDS011;34127;47.412;9.730;2022-08-07T09:53:02;5.97;;;4.57;;
48317;SDS011;34127;47.412;9.730;2022-08-07T09:58:23;5.70;;;4.18;;
48317;SDS011;34127;47.412;9.730;2022-08-07T10:27:29;5.20;;;3.25;;
48317;SDS011;34127;47.412;9.730;2022-08-07T10:30:06;5.65;;;3.55;;
48317;SDS011;34127;47.412;9.730;2022-08-07T10:35:29;8.17;;;3.73;;
48317;SDS011;34127;47.412;9.730;2022-08-07T10:40:27;4.97;;;3.70;;
48317;SDS011;34127;47.412;9.730;2022-08-07T10:45:30;4.30;;;3.40;;
48317;SDS011;34127;47.412;9.730;2022-08-07T10:48:03;4.78;;;3.33;;
48317;SDS011;34127;47.412;9.730;2022-08-07T10:50:33;6.38;;;3.55;;
48317;SDS011;34127;47.412;9.730;2022-08-07T10:53:03;3.85;;;3.10;;
48317;SDS011;34127;47.412;9.730;2022-08-07T10:55:43;4.95;;;3.08;;
48317;SDS011;34127;47.412;9.730;2022-08-07T11:00:45;5.18;;;3.40;;
48317;SDS011;34127;47.412;9.730;2022-08-07T11:03:48;4.70;;;3.38;;
48317;SDS011;34127;47.412;9.730;2022-08-07T11:06:10;5.97;;;3.40;;
48317;SDS011;34127;47.412;9.730;2022-08-07T11:11:16;5.30;;;3.50;;
48317;SDS011;34127;47.412;9.730;2022-08-07T11:16:18;4.38;;;3.33;;
48317;SDS011;34127;47.412;9.730;2022-08-07T11:23:58;4.30;;;3.05;;
48317;SDS011;34127;47.412;9.730;2022-08-07T11:26:34;4.78;;;3.15;;
48317;SDS011;34127;47.412;9.730;2022-08-07T11:29:13;4.20;;;3.08;;
48317;SDS011;34127;47.412;9.730;2022-08-07T11:31:42;4.35;;;3.10;;
48317;SDS011;34127;47.412;9.730;2022-08-07T11:34:19;4.03;;;3.10;;
48317;SDS011;34127;47.412;9.730;2022-08-07T11:39:20;4.70;;;3.03;;
48317;SDS011;34127;47.412;9.730;2022-08-07T11:44:58;3.92;;;2.90;;
48317;SDS011;34127;47.412;9.730;2022-08-07T11:57:44;4.60;;;3.22;;
48317;SDS011;34127;47.412;9.730;2022-08-07T12:00:15;4.07;;;3.20;;
48317;SDS011;34127;47.412;9.730;2022-08-07T12:08:44;4.38;;;2.95;;
48317;SDS011;34127;47.412;9.730;2022-08-07T12:10:37;4.60;;;3.20;;
48317;SDS011;34127;47.412;9.730;2022-08-07T12:13:06;6.35;;;3.60;;
48317;SDS011;34127;47.412;9.730;2022-08-07T12:15:33;4.25;;;3.00;;
48317;SDS011;34127;47.412;9.730;2022-08-07T12:18:08;4.05;;;3.15;;
48317;SDS011;34127;47.412;9.730;2022-08-07T12:23:21;4.35;;;3.22;;
48317;SDS011;34127;47.412;9.730;2022-08-07T12:25:53;4.07;;;2.83;;
48317;SDS011;34127;47.412;9.730;2022-08-07T12:28:39;3.78;;;2.80;;
48317;SDS011;34127;47.412;9.730;2022-08-07T12:31:12;3.80;;;2.90;;
48317;SDS011;34127;47.412;9.730;2022-08-07T12:33:39;4.38;;;2.95;;
48317;SDS011;34127;47.412;9.730;2022-08-07T12:36:05;5.05;;;2.97;;
48317;SDS011;34127;47.412;9.730;2022-08-07T12:38:32;4.05;;;3.00;;
48317;SDS011;34127;47.412;9.730;2022-08-07T12:40:58;4.18;;;2.72;;
48317;SDS011;34127;47.412;9.730;2022-08-07T12:43:29;4.68;;;3.20;;
48317;SDS011;34127;47.412;9.730;2022-08-07T12:48:57;5.45;;;3.20;;
48317;SDS011;34127;47.412;9.730;2022-08-07T12:51:27;3.95;;;3.30;;
48317;SDS011;34127;47.412;9.730;2022-08-07T12:53:57;4.82;;;3.03;;
48317;SDS011;34127;47.412;9.730;2022-08-07T12:58:52;4.53;;;3.20;;
48317;SDS011;34127;47.412;9.730;2022-08-07T13:03:57;4.22;;;3.10;;
48317;SDS011;34127;47.412;9.730;2022-08-07T13:08:55;4.72;;;2.88;;
48317;SDS011;34127;47.412;9.730;2022-08-07T13:11:33;5.07;;;3.15;;
48317;SDS011;34127;47.412;9.730;2022-08-07T13:14:18;3.97;;;3.00;;
48317;SDS011;34127;47.412;9.730;2022-08-07T13:17:01;4.18;;;3.10;;
48317;SDS011;34127;47.412;9.730;2022-08-07T13:19:33;3.58;;;3.03;;
48317;SDS011;34127;47.412;9.730;2022-08-07T13:24:41;5.43;;;3.20;;
48317;SDS011;34127;47.412;9.730;2022-08-07T13:27:12;3.80;;;3.00;;
48317;SDS011;34127;47.412;9.730;2022-08-07T13:34:57;5.20;;;3.40;;
48317;SDS011;34127;47.412;9.730;2022-08-07T13:42:24;4.85;;;3.17;;
48317;SDS011;34127;47.412;9.730;2022-08-07T13:44:51;4.70;;;3.20;;
48317;SDS011;34127;47.412;9.730;2022-08-07T13:47:18;4.85;;;3.25;;
48317;SDS011;34127;47.412;9.730;2022-08-07T13:49:45;6.22;;;3.40;;
48317;SDS011;34127;47.412;9.730;2022-08-07T13:52:12;7.25;;;3.70;;
48317;SDS011;34127;47.412;9.730;2022-08-07T13:54:39;4.18;;;3.17;;
48317;SDS011;34127;47.412;9.730;2022-08-07T13:57:06;4.50;;;3.28;;
48317;SDS011;34127;47.412;9.730;2022-08-07T13:59:38;4.85;;;3.42;;
48317;SDS011;34127;47.412;9.730;2022-08-07T14:02:12;4.70;;;3.60;;
48317;SDS011;34127;47.412;9.730;2022-08-07T14:07:08;5.65;;;2.88;;
48317;SDS011;34127;47.412;9.730;2022-08-07T14:09:36;5.50;;;3.35;;
48317;SDS011;34127;47.412;9.730;2022-08-07T14:12:04;4.43;;;3.40;;
48317;SDS011;34127;47.412;9.730;2022-08-07T14:14:37;6.40;;;3.20;;
48317;SDS011;34127;47.412;9.730;2022-08-07T14:17:03;5.18;;;3.20;;
48317;SDS011;34127;47.412;9.730;2022-08-07T14:19:54;4.50;;;3.10;;
48317;SDS011;34127;47.412;9.730;2022-08-07T14:24:46;5.68;;;3.20;;
48317;SDS011;34127;47.412;9.730;2022-08-07T14:27:13;6.93;;;3.50;;
48317;SDS011;34127;47.412;9.730;2022-08-07T14:29:46;4.85;;;3.20;;
48317;SDS011;34127;47.412;9.730;2022-08-07T14:32:13;6.60;;;3.20;;
48317;SDS011;34127;47.412;9.730;2022-08-07T14:34:43;5.72;;;3.10;;
48317;SDS011;34127;47.412;9.730;2022-08-07T14:37:11;5.47;;;3.13;;
48317;SDS011;34127;47.412;9.730;2022-08-07T14:39:39;6.43;;;3.83;;
48317;SDS011;34127;47.412;9.730;2022-08-07T14:42:06;4.30;;;3.40;;
48317;SDS011;34127;47.412;9.730;2022-08-07T14:44:36;5.18;;;3.30;;
48317;SDS011;34127;47.412;9.730;2022-08-07T14:47:03;6.15;;;3.28;;
48317;SDS011;34127;47.412;9.730;2022-08-07T14:49:30;5.60;;;3.50;;
48317;SDS011;34127;47.412;9.730;2022-08-07T14:51:57;5.05;;;3.33;;
48317;SDS011;34127;47.412;9.730;2022-08-07T14:54:28;5.57;;;3.25;;
48317;SDS011;34127;47.412;9.730;2022-08-07T14:56:54;5.40;;;3.80;;
48317;SDS011;34127;47.412;9.730;2022-08-07T14:59:21;6.00;;;3.70;;
48317;SDS011;34127;47.412;9.730;2022-08-07T15:01:47;4.82;;;3.40;;
48317;SDS011;34127;47.412;9.730;2022-08-07T15:04:14;5.78;;;3.42;;
48317;SDS011;34127;47.412;9.730;2022-08-07T15:06:41;4.80;;;3.88;;
48317;SDS011;34127;47.412;9.730;2022-08-07T15:09:12;4.45;;;3.70;;
48317;SDS011;34127;47.412;9.730;2022-08-07T15:11:42;5.90;;;3.70;;
48317;SDS011;34127;47.412;9.730;2022-08-07T15:14:10;5.53;;;3.78;;
48317;SDS011;34127;47.412;9.730;2022-08-07T15:17:39;4.82;;;3.42;;
48317;SDS011;34127;47.412;9.730;2022-08-07T15:19:34;5.45;;;3.78;;
48317;SDS011;34127;47.412;9.730;2022-08-07T15:22:01;5.65;;;4.00;;
48317;SDS011;34127;47.412;9.730;2022-08-07T15:24:30;5.85;;;3.35;;
48317;SDS011;34127;47.412;9.730;2022-08-07T15:27:01;4.60;;;3.40;;
48317;SDS011;34127;47.412;9.730;2022-08-07T15:29:33;5.32;;;3.08;;
48317;SDS011;34127;47.412;9.730;2022-08-07T15:32:00;8.00;;;5.20;;
48317;SDS011;34127;47.412;9.730;2022-08-07T15:34:28;7.45;;;4.32;;
48317;SDS011;34127;47.412;9.730;2022-08-07T15:36:54;5.10;;;3.95;;
48317;SDS011;34127;47.412;9.730;2022-08-07T15:39:20;5.18;;;3.72;;
48317;SDS011;34127;47.412;9.730;2022-08-07T15:41:59;5.15;;;3.50;;
48317;SDS011;34127;47.412;9.730;2022-08-07T15:44:27;4.53;;;3.35;;
48317;SDS011;34127;47.412;9.730;2022-08-07T15:46:58;7.38;;;3.90;;
48317;SDS011;34127;47.412;9.730;2022-08-07T15:49:26;5.60;;;3.70;;
48317;SDS011;34127;47.412;9.730;2022-08-07T15:51:53;5.32;;;3.67;;
48317;SDS011;34127;47.412;9.730;2022-08-07T15:54:20;4.80;;;4.00;;
48317;SDS011;34127;47.412;9.730;2022-08-07T15:56:48;5.30;;;3.60;;
48317;SDS011;34127;47.412;9.730;2022-08-07T15:59:14;5.80;;;3.78;;
48317;SDS011;34127;47.412;9.730;2022-08-07T16:01:47;4.90;;;3.55;;
48317;SDS011;34127;47.412;9.730;2022-08-07T16:04:14;4.90;;;3.60;;
48317;SDS011;34127;47.412;9.730;2022-08-07T16:06:42;4.78;;;3.90;;
48317;SDS011;34127;47.412;9.730;2022-08-07T16:11:45;5.15;;;3.78;;
48317;SDS011;34127;47.412;9.730;2022-08-07T16:14:28;7.15;;;3.22;;
48317;SDS011;34127;47.412;9.730;2022-08-07T16:17:01;4.85;;;3.40;;
48317;SDS011;34127;47.412;9.730;2022-08-07T16:24:33;4.53;;;3.22;;
48317;SDS011;34127;47.412;9.730;2022-08-07T16:30:03;6.63;;;3.70;;
48317;SDS011;34127;47.412;9.730;2022-08-07T16:32:43;3.90;;;3.20;;
48317;SDS011;34127;47.412;9.730;2022-08-07T16:35:15;4.57;;;3.17;;
48317;SDS011;34127;47.412;9.730;2022-08-07T16:40:33;4.75;;;3.22;;
48317;SDS011;34127;47.412;9.730;2022-08-07T16:55:25;4.53;;;3.30;;
48317;SDS011;34127;47.412;9.730;2022-08-07T16:57:59;5.78;;;3.17;;
48317;SDS011;34127;47.412;9.730;2022-08-07T17:00:32;5.05;;;3.33;;
48317;SDS011;34127;47.412;9.730;2022-08-07T17:03:18;6.03;;;3.70;;
48317;SDS011;34127;47.412;9.730;2022-08-07T17:06:05;5.28;;;3.70;;
48317;SDS011;34127;47.412;9.730;2022-08-07T17:11:05;5.68;;;4.13;;
48317;SDS011;34127;47.412;9.730;2022-08-07T17:13:38;4.68;;;3.28;;
48317;SDS011;34127;47.412;9.730;2022-08-07T17:19:03;5.30;;;4.03;;
48317;SDS011;34127;47.412;9.730;2022-08-07T17:21:29;4.88;;;3.50;;
48317;SDS011;34127;47.412;9.730;2022-08-07T17:26:51;6.30;;;3.60;;
48317;SDS011;34127;47.412;9.730;2022-08-07T17:29:22;7.03;;;3.63;;
48317;SDS011;34127;47.412;9.730;2022-08-07T17:32:01;6.53;;;3.42;;
48317;SDS011;34127;47.412;9.730;2022-08-07T17:34:31;4.30;;;3.25;;
48317;SDS011;34127;47.412;9.730;2022-08-07T17:37:03;4.78;;;3.22;;
48317;SDS011;34127;47.412;9.730;2022-08-07T17:42:06;4.38;;;3.33;;
48317;SDS011;34127;47.412;9.730;2022-08-07T17:44:39;4.97;;;2.97;;
48317;SDS011;34127;47.412;9.730;2022-08-07T17:47:14;4.88;;;3.55;;
48317;SDS011;34127;47.412;9.730;2022-08-07T17:50:05;4.45;;;3.20;;
48317;SDS011;34127;47.412;9.730;2022-08-07T17:55:07;6.20;;;3.25;;
48317;SDS011;34127;47.412;9.730;2022-08-07T18:00:07;5.70;;;3.60;;
48317;SDS011;34127;47.412;9.730;2022-08-07T18:07:51;4.32;;;3.85;;